createdAt,value
2023-01-09T00:00:34.554Z,98809.47
2023-01-09T00:03:01.282Z,98807.75
2023-01-09T00:05:27.896Z,98793.94
2023-01-09T00:07:54.485Z,98795.66
2023-01-09T00:10:21.096Z,98787.91
2023-01-09T00:12:47.777Z,98789.63
2023-01-09T00:15:17.194Z,98791.34
2023-01-09T00:17:43.909Z,98786.91
2023-01-09T00:20:14.313Z,98781.72
2023-01-09T00:22:40.924Z,98777.47
2023-01-09T00:25:07.866Z,98773.13
2023-01-09T00:27:35.945Z,98773.13
2023-01-09T00:30:03.498Z,98774.81
2023-01-09T00:32:30.207Z,98768.03
2023-01-09T00:34:56.787Z,98778.38
2023-01-09T00:37:23.871Z,98774.16
2023-01-09T00:39:50.536Z,98782.63
2023-01-09T00:42:22.236Z,98777.53
2023-01-09T00:44:59.094Z,98777.53
2023-01-09T00:47:34.029Z,98780.97
2023-01-09T00:50:10.237Z,98776.66
2023-01-09T00:52:40.359Z,98780.22
2023-01-09T00:55:08.175Z,98781.13
2023-01-09T00:57:35.028Z,98776.59
2023-01-09T01:00:02.173Z,98785.97
2023-01-09T01:02:28.928Z,98788.66
2023-01-09T01:05:14.239Z,98788.66
2023-01-09T01:07:42.739Z,98788.66
2023-01-09T01:10:17.029Z,98792.09
2023-01-09T01:12:43.871Z,98795.66
2023-01-09T01:15:11.408Z,98788.78
2023-01-09T01:17:39.071Z,98799.94
2023-01-09T01:20:08.423Z,98795.56
2023-01-09T01:22:35.255Z,98786.16
2023-01-09T01:25:02.224Z,98794.78
2023-01-09T01:27:29.107Z,98783.47
2023-01-09T01:29:56.655Z,98795.66
2023-01-09T01:32:24.191Z,98800.84
2023-01-09T01:34:50.795Z,98800.84
2023-01-09T01:37:17.339Z,98795.75
2023-01-09T01:39:43.964Z,98793.19
2023-01-09T01:42:13.048Z,98795.00
2023-01-09T01:45:09.141Z,98792.28
2023-01-09T01:47:41.561Z,98785.38
2023-01-09T01:50:13.921Z,98783.66
2023-01-09T01:52:45.062Z,98787.22
2023-01-09T01:55:13.776Z,98786.31
2023-01-09T01:57:45.881Z,98786.28
2023-01-09T02:00:12.895Z,98789.72
2023-01-09T02:02:39.547Z,98796.56
2023-01-09T02:05:06.644Z,98781.97
2023-01-09T02:07:33.366Z,98794.03
2023-01-09T02:10:00.115Z,98800.06
2023-01-09T02:12:27.984Z,98804.56
2023-01-09T02:15:06.725Z,98795.84
2023-01-09T02:17:45.672Z,98790.66
2023-01-09T02:20:18.184Z,98786.31
2023-01-09T02:23:16.060Z,98783.75
2023-01-09T02:26:07.473Z,98786.41
2023-01-09T02:29:11.076Z,98769.00
2023-01-09T02:31:58.793Z,98772.53
2023-01-09T02:34:31.518Z,98781.31
2023-01-09T02:37:22.517Z,98770.97
2023-01-09T02:40:01.592Z,98770.09
2023-01-09T02:42:29.552Z,98766.63
2023-01-09T02:44:56.091Z,98770.09
2023-01-09T02:47:22.809Z,98764.06
2023-01-09T02:49:59.860Z,98762.28
2023-01-09T02:52:38.603Z,98764.84
2023-01-09T02:55:23.165Z,98770.03
2023-01-09T02:58:11.592Z,98769.16
2023-01-09T03:00:50.146Z,98762.25
2023-01-09T03:03:27.523Z,98763.03
2023-01-09T03:06:06.889Z,98763.06
2023-01-09T03:08:39.999Z,98765.66
2023-01-09T03:11:08.862Z,98758.75
2023-01-09T03:13:53.220Z,98762.19
2023-01-09T03:16:35.298Z,98762.19
2023-01-09T03:19:06.426Z,98761.47
2023-01-09T03:21:34.250Z,98771.88
2023-01-09T03:24:02.470Z,98770.06
2023-01-09T03:26:29.862Z,98770.06
2023-01-09T03:28:57.100Z,98779.59
2023-01-09T03:31:23.992Z,98786.47
2023-01-09T03:33:50.839Z,98777.84
2023-01-09T03:36:19.004Z,98787.28
2023-01-09T03:38:45.858Z,98790.75
2023-01-09T03:41:12.436Z,98792.47
2023-01-09T03:43:39.096Z,98786.41
2023-01-09T03:46:05.986Z,98797.69
2023-01-09T03:48:32.839Z,98804.59
2023-01-09T03:50:59.489Z,98805.41
2023-01-09T03:53:28.168Z,98808.06
2023-01-09T03:55:57.011Z,98805.47
2023-01-09T03:58:24.178Z,98813.22
2023-01-09T04:00:52.420Z,98822.72
2023-01-09T04:03:20.494Z,98827.94
2023-01-09T04:05:49.210Z,98836.63
2023-01-09T04:08:16.343Z,98834.03
2023-01-09T04:10:47.553Z,98840.97
2023-01-09T04:13:14.805Z,98845.25
2023-01-09T04:15:41.561Z,98841.03
2023-01-09T04:18:08.275Z,98842.69
2023-01-09T04:20:35.049Z,98854.72
2023-01-09T04:23:02.115Z,98866.88
2023-01-09T04:25:28.857Z,98865.94
2023-01-09T04:27:55.388Z,98870.28
2023-01-09T04:30:22.238Z,98873.66
2023-01-09T04:32:49.067Z,98878.81
2023-01-09T04:35:15.783Z,98886.59
2023-01-09T04:37:42.353Z,98884.03
2023-01-09T04:40:10.652Z,98885.69
2023-01-09T04:42:38.613Z,98880.59
2023-01-09T04:45:07.185Z,98884.91
2023-01-09T04:47:33.868Z,98894.44
2023-01-09T04:50:01.066Z,98899.56
2023-01-09T04:52:28.475Z,98895.28
2023-01-09T04:54:55.082Z,98896.97
2023-01-09T04:57:21.772Z,98899.56
2023-01-09T04:59:48.374Z,98908.19
2023-01-09T05:02:15.070Z,98912.56
2023-01-09T05:04:41.740Z,98915.97
2023-01-09T05:07:08.347Z,98913.41
2023-01-09T05:09:36.063Z,98920.25
2023-01-09T05:12:03.012Z,98925.47
2023-01-09T05:14:29.717Z,98918.56
2023-01-09T05:16:56.533Z,98911.66
2023-01-09T05:19:23.553Z,98917.72
2023-01-09T05:21:50.271Z,98929.81
2023-01-09T05:24:16.928Z,98927.22
2023-01-09T05:26:43.512Z,98925.50
2023-01-09T05:29:10.141Z,98934.13
2023-01-09T05:31:36.802Z,98943.63
2023-01-09T05:34:03.539Z,98952.22
2023-01-09T05:36:30.130Z,98949.63
2023-01-09T05:38:57.891Z,98959.06
2023-01-09T05:41:26.122Z,98961.66
2023-01-09T05:43:52.725Z,98967.66
2023-01-09T05:46:19.441Z,98963.41
2023-01-09T05:48:46.147Z,98965.13
2023-01-09T05:51:12.772Z,98954.75
2023-01-09T05:53:39.421Z,98959.91
2023-01-09T05:56:06.351Z,98961.66
2023-01-09T05:58:32.893Z,98966.81
2023-01-09T06:00:59.568Z,98967.75
2023-01-09T06:03:26.220Z,98971.19
2023-01-09T06:05:52.762Z,98969.44
2023-01-09T06:08:19.337Z,98972.06
2023-01-09T06:10:47.178Z,98972.03
2023-01-09T06:13:14.539Z,98977.22
2023-01-09T06:15:41.494Z,98977.22
2023-01-09T06:18:08.220Z,98984.13
2023-01-09T06:20:35.332Z,98979.78
2023-01-09T06:23:01.876Z,98986.72
2023-01-09T06:25:28.433Z,98977.22
2023-01-09T06:27:54.975Z,98980.66
2023-01-09T06:30:21.723Z,98983.25
2023-01-09T06:32:49.561Z,98987.56
2023-01-09T06:35:20.429Z,98989.28
2023-01-09T06:37:50.498Z,98980.66
2023-01-09T06:40:18.565Z,98982.38
2023-01-09T06:42:45.954Z,98980.66
2023-01-09T06:45:13.881Z,98991.88
2023-01-09T06:47:40.947Z,98989.28
2023-01-09T06:50:12.602Z,98997.03
2023-01-09T06:52:39.768Z,98999.63
2023-01-09T06:55:07.643Z,98993.59
2023-01-09T06:57:34.180Z,99004.78
2023-01-09T07:00:00.735Z,99001.34
2023-01-09T07:02:27.262Z,99013.44
2023-01-09T07:04:53.838Z,99011.69
2023-01-09T07:07:22.247Z,99022.91
2023-01-09T07:09:48.888Z,99014.28
2023-01-09T07:12:15.608Z,99016.84
2023-01-09T07:14:42.302Z,99008.25
2023-01-09T07:17:12.327Z,99012.56
2023-01-09T07:19:38.957Z,99005.66
2023-01-09T07:22:05.572Z,99014.28
2023-01-09T07:24:32.168Z,99021.19
2023-01-09T07:26:58.710Z,99016.88
2023-01-09T07:29:25.336Z,99028.94
2023-01-09T07:31:51.914Z,99018.56
2023-01-09T07:34:19.777Z,99023.75
2023-01-09T07:36:46.716Z,99015.16
2023-01-09T07:39:13.774Z,99021.19
2023-01-09T07:41:40.637Z,99025.47
2023-01-09T07:44:11.076Z,99035.81
2023-01-09T07:46:37.999Z,99035.84
2023-01-09T07:49:05.012Z,99032.38
2023-01-09T07:51:31.627Z,99029.78
2023-01-09T07:53:58.251Z,99039.28
2023-01-09T07:56:24.985Z,99041.88
2023-01-09T07:58:51.533Z,99040.13
2023-01-09T08:01:18.257Z,99035.81
2023-01-09T08:03:44.921Z,99040.13
2023-01-09T08:06:11.518Z,99053.94
2023-01-09T08:08:38.102Z,99044.44
2023-01-09T08:11:04.793Z,99049.63
2023-01-09T08:13:31.345Z,99041.00
2023-01-09T08:15:57.964Z,99040.13
2023-01-09T08:18:24.596Z,99051.34
2023-01-09T08:20:51.318Z,99049.63
2023-01-09T08:23:18.093Z,99042.75
2023-01-09T08:25:44.814Z,99047.88
2023-01-09T08:28:11.343Z,99045.31
2023-01-09T08:30:38.158Z,99048.75
2023-01-09T08:33:05.211Z,99050.47
2023-01-09T08:35:31.840Z,99045.31
2023-01-09T08:37:58.530Z,99053.94
2023-01-09T08:40:25.223Z,99054.81
2023-01-09T08:43:10.507Z,99053.94
2023-01-09T08:45:55.742Z,99058.22
2023-01-09T08:48:22.312Z,99056.50
2023-01-09T08:50:49.306Z,99059.09
2023-01-09T08:53:15.887Z,99060.81
2023-01-09T08:55:43.150Z,99062.56
2023-01-09T08:58:09.799Z,99067.75
2023-01-09T09:00:36.535Z,99066.88
2023-01-09T09:03:03.454Z,99054.81
2023-01-09T09:05:31.106Z,99056.50
2023-01-09T09:07:58.299Z,99064.28
2023-01-09T09:10:28.413Z,99054.78
2023-01-09T09:12:56.678Z,99060.81
2023-01-09T09:15:24.170Z,99061.69
2023-01-09T09:17:58.862Z,99065.16
2023-01-09T09:20:27.933Z,99066.00
2023-01-09T09:22:55.344Z,99060.00
2023-01-09T09:25:22.294Z,99059.97
2023-01-09T09:27:49.079Z,99067.72
2023-01-09T09:30:17.709Z,99065.16
2023-01-09T09:32:45.460Z,99062.53
2023-01-09T09:35:12.896Z,99063.41
2023-01-09T09:37:39.570Z,99059.97
2023-01-09T09:40:18.002Z,99079.81
2023-01-09T09:43:36.096Z,99071.22
2023-01-09T09:46:10.912Z,99074.63
2023-01-09T09:48:41.495Z,99073.75
2023-01-09T09:51:26.773Z,99074.59
2023-01-09T09:54:14.705Z,99076.34
2023-01-09T09:56:53.200Z,99083.25
2023-01-09T09:59:27.041Z,99067.72
2023-01-09T10:02:11.908Z,99079.81
2023-01-09T10:04:42.935Z,99083.22
2023-01-09T10:07:21.514Z,99072.03
2023-01-09T10:10:01.581Z,99089.28
2023-01-09T10:12:30.183Z,99084.13
2023-01-09T10:14:59.095Z,99081.50
2023-01-09T10:17:33.188Z,99078.94
2023-01-09T10:20:41.781Z,99082.44
2023-01-09T10:23:41.470Z,99087.56
2023-01-09T10:26:20.124Z,99073.75
2023-01-09T10:29:05.645Z,99082.38
2023-01-09T10:31:50.503Z,99082.38
2023-01-09T10:34:32.276Z,99072.91
2023-01-09T10:37:16.176Z,99086.69
2023-01-09T10:39:52.595Z,99091.03
2023-01-09T10:42:34.318Z,99079.78
2023-01-09T10:45:16.300Z,99075.47
2023-01-09T10:47:44.986Z,99082.41
2023-01-09T10:50:23.672Z,99064.25
2023-01-09T10:52:53.353Z,99073.72
2023-01-09T10:55:39.766Z,99077.19
2023-01-09T10:58:32.783Z,99072.81
2023-01-09T11:01:01.432Z,99071.09
2023-01-09T11:03:29.111Z,99060.75
2023-01-09T11:05:58.377Z,99059.88
2023-01-09T11:08:41.880Z,99055.56
2023-01-09T11:11:10.127Z,99050.38
2023-01-09T11:13:38.371Z,99051.19
2023-01-09T11:16:10.964Z,99046.03
2023-01-09T11:18:53.296Z,99049.47
2023-01-09T11:21:32.810Z,99046.97
2023-01-09T11:24:22.419Z,99038.28
2023-01-09T11:26:51.163Z,99055.50
2023-01-09T11:29:25.972Z,99051.13
2023-01-09T11:31:58.478Z,99058.09
2023-01-09T11:34:31.624Z,99050.38
2023-01-09T11:37:15.841Z,99054.69
2023-01-09T11:39:47.952Z,99066.69
2023-01-09T11:42:43.448Z,99066.69
2023-01-09T11:45:29.985Z,99066.78
2023-01-09T11:47:56.554Z,99070.22
2023-01-09T11:50:29.266Z,99071.09
2023-01-09T11:53:16.161Z,99071.00
2023-01-09T11:55:44.455Z,99073.59
2023-01-09T11:58:20.914Z,99088.38
2023-01-09T12:01:09.171Z,99093.56
2023-01-09T12:04:19.007Z,99101.38
2023-01-09T12:07:04.003Z,99099.69
2023-01-09T12:09:55.005Z,99099.63
2023-01-09T12:12:50.299Z,99103.13
2023-01-09T12:15:17.365Z,99104.81
2023-01-09T12:17:47.069Z,99109.16
2023-01-09T12:20:17.662Z,99123.78
2023-01-09T12:22:52.912Z,99113.44
2023-01-09T12:25:37.545Z,99117.78
2023-01-09T12:28:22.379Z,99124.69
2023-01-09T12:31:08.419Z,99121.19
2023-01-09T12:34:29.680Z,99121.22
2023-01-09T12:37:38.742Z,99122.91
2023-01-09T12:40:32.857Z,99121.19
2023-01-09T12:43:23.975Z,99119.47
2023-01-09T12:45:56.739Z,99127.25
2023-01-09T12:48:36.433Z,99130.69
2023-01-09T12:51:16.259Z,99136.72
2023-01-09T12:53:51.286Z,99132.44
2023-01-09T12:56:26.211Z,99135.88
2023-01-09T12:59:01.985Z,99148.78
2023-01-09T13:01:38.766Z,99147.88
2023-01-09T13:04:20.530Z,99137.53
2023-01-09T13:06:54.303Z,99146.13
2023-01-09T13:09:29.634Z,99143.63
2023-01-09T13:12:04.347Z,99146.22
2023-01-09T13:15:00.751Z,99144.38
2023-01-09T13:17:33.091Z,99154.81
2023-01-09T13:19:59.633Z,99156.53
2023-01-09T13:22:29.005Z,99157.31
2023-01-09T13:25:07.844Z,99161.72
2023-01-09T13:27:40.922Z,99166.91
2023-01-09T13:30:13.615Z,99163.50
2023-01-09T13:32:52.598Z,99163.47
2023-01-09T13:35:19.099Z,99165.16
2023-01-09T13:37:51.699Z,99178.13
2023-01-09T13:40:21.398Z,99176.44
2023-01-09T13:42:58.500Z,99169.50
2023-01-09T13:45:28.254Z,99174.75
2023-01-09T13:48:11.031Z,99172.13
2023-01-09T13:50:38.680Z,99171.25
2023-01-09T13:53:20.386Z,99172.97
2023-01-09T13:55:59.705Z,99177.31
2023-01-09T13:58:28.557Z,99179.91
2023-01-09T14:01:01.772Z,99171.25
2023-01-09T14:03:31.356Z,99184.22
2023-01-09T14:05:57.795Z,99186.81
2023-01-09T14:08:27.471Z,99194.59
2023-01-09T14:11:01.210Z,99192.00
2023-01-09T14:13:32.259Z,99209.25
2023-01-09T14:16:23.318Z,99210.13
2023-01-09T14:19:14.570Z,99213.59
2023-01-09T14:22:08.198Z,99218.75
2023-01-09T14:24:46.777Z,99233.44
2023-01-09T14:27:51.832Z,99247.25
2023-01-09T14:30:27.860Z,99248.97
2023-01-09T14:33:19.814Z,99250.69
2023-01-09T14:36:14.141Z,99269.66
2023-01-09T14:39:03.696Z,99270.53
2023-01-09T14:41:55.061Z,99282.59
2023-01-09T14:44:29.776Z,99280.81
2023-01-09T14:47:09.840Z,99287.78
2023-01-09T14:49:48.775Z,99297.31
2023-01-09T14:52:33.083Z,99312.81
2023-01-09T14:55:02.149Z,99310.22
2023-01-09T14:57:31.984Z,99324.91
2023-01-09T15:00:17.891Z,99332.69
2023-01-09T15:02:46.520Z,99326.63
2023-01-09T15:05:20.621Z,99327.50
2023-01-09T15:07:54.602Z,99345.63
2023-01-09T15:10:26.348Z,99355.09
2023-01-09T15:12:56.520Z,99351.69
2023-01-09T15:15:25.187Z,99361.91
2023-01-09T15:18:01.367Z,99372.38
2023-01-09T15:20:31.137Z,99372.38
2023-01-09T15:23:04.112Z,99368.91
2023-01-09T15:25:39.378Z,99390.41
2023-01-09T15:28:27.072Z,99393.94
2023-01-09T15:31:17.139Z,99399.13
2023-01-09T15:33:46.167Z,99399.88
2023-01-09T15:36:31.259Z,99410.16
2023-01-09T15:38:59.352Z,99417.13
2023-01-09T15:41:49.533Z,99420.75
2023-01-09T15:44:41.193Z,99414.50
2023-01-09T15:47:28.189Z,99412.91
2023-01-09T15:50:05.917Z,99394.69
2023-01-09T15:52:56.638Z,99437.06
2023-01-09T15:58:41.025Z,99438.72
2023-01-09T16:02:00.198Z,99440.53
2023-01-09T16:04:35.874Z,99420.38
2023-01-09T16:07:35.565Z,99430.78
2023-01-09T16:10:57.388Z,99430.84
2023-01-09T16:13:35.599Z,99475.03
2023-01-09T16:16:39.273Z,99454.09
2023-01-09T16:19:31.831Z,99474.91
2023-01-09T16:22:26.449Z,99471.34
2023-01-09T16:25:04.028Z,99479.06
2023-01-09T16:28:04.376Z,99459.97
2023-01-09T16:30:31.718Z,99490.97
2023-01-09T16:32:58.568Z,99498.72
2023-01-09T16:35:26.327Z,99510.00
2023-01-09T16:37:53.278Z,99514.03
2023-01-09T16:40:25.639Z,99504.59
2023-01-09T16:43:00.401Z,99515.97
2023-01-09T16:45:38.649Z,99528.06
2023-01-09T16:48:15.568Z,99534.84
2023-01-09T16:50:43.094Z,99543.38
2023-01-09T16:53:35.856Z,99541.66
2023-01-09T16:56:02.706Z,99547.66
2023-01-09T16:58:31.559Z,99557.78
2023-01-09T17:00:58.653Z,99558.75
2023-01-09T17:03:27.268Z,99562.22
2023-01-09T17:05:56.620Z,99568.88
2023-01-09T17:08:25.935Z,99571.72
2023-01-09T17:10:54.645Z,99574.09
2023-01-09T17:13:22.119Z,99568.38
2023-01-09T17:15:49.183Z,99569.00
2023-01-09T17:18:18.133Z,99578.25
2023-01-09T17:20:47.382Z,99571.31
2023-01-09T17:23:14.185Z,99588.84
2023-01-09T17:25:59.994Z,99579.94
2023-01-09T17:28:32.655Z,99592.06
2023-01-09T17:31:05.908Z,99587.16
2023-01-09T17:33:33.700Z,99592.31
2023-01-09T17:36:02.935Z,99601.75
2023-01-09T17:38:29.587Z,99604.22
2023-01-09T17:40:56.101Z,99606.56
2023-01-09T17:43:22.676Z,99611.66
2023-01-09T17:45:49.489Z,99624.91
2023-01-09T17:48:25.514Z,99638.13
2023-01-09T17:50:52.158Z,99639.97
2023-01-09T17:53:20.692Z,99639.16
2023-01-09T17:55:47.338Z,99650.94
2023-01-09T17:58:26.242Z,99655.44
2023-01-09T18:00:52.984Z,99656.25
2023-01-09T18:03:24.267Z,99669.97
2023-01-09T18:05:51.090Z,99675.28
2023-01-09T18:08:17.756Z,99661.53
2023-01-09T18:10:48.442Z,99686.66
2023-01-09T18:13:16.514Z,99691.84
2023-01-09T18:15:44.567Z,99696.81
2023-01-09T18:18:11.665Z,99699.38
2023-01-09T18:20:42.713Z,99713.00
2023-01-09T18:23:11.119Z,99711.50
2023-01-09T18:25:42.078Z,99724.31
2023-01-09T18:28:10.362Z,99732.34
2023-01-09T18:30:37.389Z,99741.59
2023-01-09T18:33:04.227Z,99749.38
2023-01-09T18:35:33.660Z,99749.97
2023-01-09T18:38:00.337Z,99752.78
2023-01-09T18:40:27.101Z,99756.38
2023-01-09T18:42:53.656Z,99755.47
2023-01-09T18:45:20.321Z,99758.06
2023-01-09T18:47:46.949Z,99761.34
2023-01-09T18:50:13.541Z,99757.97
2023-01-09T18:52:40.255Z,99758.69
2023-01-09T18:55:07.142Z,99772.41
2023-01-09T18:57:33.719Z,99768.13
2023-01-09T19:00:00.344Z,99773.25
2023-01-09T19:02:27.167Z,99775.25
2023-01-09T19:04:53.767Z,99780.28
2023-01-09T19:07:20.474Z,99787.09
2023-01-09T19:09:47.065Z,99782.13
2023-01-09T19:12:13.671Z,99792.47
2023-01-09T19:14:40.347Z,99801.84
2023-01-09T19:17:06.956Z,99797.66
2023-01-09T19:19:33.878Z,99799.09
2023-01-09T19:22:00.660Z,99805.78
2023-01-09T19:24:27.405Z,99811.69
2023-01-09T19:26:54.295Z,99816.31
2023-01-09T19:29:20.827Z,99825.31
2023-01-09T19:31:48.728Z,99828.00
2023-01-09T19:34:18.780Z,99830.44
2023-01-09T19:36:53.998Z,99837.72
2023-01-09T19:39:23.638Z,99842.66
2023-01-09T19:41:50.248Z,99845.06
2023-01-09T19:44:19.039Z,99847.78
2023-01-09T19:46:46.154Z,99848.63
2023-01-09T19:49:12.745Z,99853.31
2023-01-09T19:51:39.277Z,99850.09
2023-01-09T19:56:35.470Z,99875.94
2023-01-09T19:59:03.740Z,99875.81
2023-01-09T20:01:39.439Z,99887.94
2023-01-09T20:04:13.271Z,99886.41
2023-01-09T20:06:41.877Z,99889.41
2023-01-09T20:09:11.067Z,99894.56
2023-01-09T20:11:44.519Z,99908.53
2023-01-09T20:14:13.722Z,99911.94
2023-01-09T20:16:40.997Z,99905.41
2023-01-09T20:19:09.455Z,99912.09
2023-01-09T20:21:36.840Z,99916.06
2023-01-09T20:24:05.259Z,99921.16
2023-01-09T20:26:34.047Z,99926.19
2023-01-09T20:29:01.000Z,99931.38
2023-01-09T20:31:30.997Z,99935.81
2023-01-09T20:33:59.678Z,99944.69
2023-01-09T20:36:29.127Z,99941.91
2023-01-09T20:39:01.316Z,99945.25
2023-01-09T20:41:30.646Z,99953.09
2023-01-09T20:44:07.112Z,99955.13
2023-01-09T20:46:38.324Z,99960.44
2023-01-09T20:49:09.039Z,99956.91
2023-01-09T20:51:37.321Z,99969.69
2023-01-09T20:54:04.113Z,99965.31
2023-01-09T20:56:31.696Z,99973.97
2023-01-09T20:58:59.606Z,99984.25
2023-01-09T21:01:27.902Z,99985.78
2023-01-09T21:03:56.354Z,99986.88
2023-01-09T21:06:24.707Z,99989.88
2023-01-09T21:08:52.969Z,99984.94
2023-01-09T21:11:21.246Z,100000.22
2023-01-09T21:13:48.009Z,99999.47
2023-01-09T21:16:19.877Z,100000.94
2023-01-09T21:18:47.698Z,100001.06
2023-01-09T21:21:16.612Z,100016.59
2023-01-09T21:23:47.906Z,100023.75
2023-01-09T21:26:15.614Z,100029.72
2023-01-09T21:28:46.459Z,100034.75
2023-01-09T21:31:14.027Z,100042.06
2023-01-09T21:33:41.064Z,100054.19
2023-01-09T21:36:08.405Z,100060.94
2023-01-09T21:38:35.297Z,100059.75
2023-01-09T21:41:22.463Z,100060.38
2023-01-09T21:44:07.890Z,100061.94
2023-01-09T21:46:52.757Z,100064.47
2023-01-09T21:49:20.460Z,100068.91
2023-01-09T21:51:47.340Z,100072.44
2023-01-09T21:54:14.166Z,100073.84
2023-01-09T21:56:40.741Z,100079.66
2023-01-09T21:59:07.610Z,100077.84
2023-01-09T22:01:34.723Z,100082.91
2023-01-09T22:04:01.424Z,100088.06
2023-01-09T22:06:28.655Z,100079.00
2023-01-09T22:08:56.088Z,100088.59
2023-01-09T22:11:23.201Z,100096.47
2023-01-09T22:13:50.756Z,100098.09
2023-01-09T22:16:18.176Z,100110.75
2023-01-09T22:18:44.889Z,100106.66
2023-01-09T22:21:11.910Z,100118.38
2023-01-09T22:23:38.531Z,100127.91
2023-01-09T22:26:13.039Z,100142.31
2023-01-09T22:28:40.224Z,100136.13
2023-01-09T22:31:17.840Z,100134.84
2023-01-09T22:33:49.604Z,100157.34
2023-01-09T22:36:16.347Z,100152.56
2023-01-09T22:38:42.937Z,100160.59
2023-01-09T22:41:09.724Z,100158.09
2023-01-09T22:43:36.396Z,100166.25
2023-01-09T22:46:04.927Z,100168.25
2023-01-09T22:48:32.321Z,100170.03
2023-01-09T22:51:00.569Z,100176.84
2023-01-09T22:53:27.899Z,100176.09
2023-01-09T22:55:56.432Z,100190.66
2023-01-09T22:58:25.005Z,100187.81
2023-01-09T23:00:52.446Z,100191.94
2023-01-09T23:03:19.132Z,100208.31
2023-01-09T23:05:45.743Z,100217.47
2023-01-09T23:08:12.713Z,100219.66
2023-01-09T23:10:39.543Z,100220.59
2023-01-09T23:13:07.591Z,100225.56
2023-01-09T23:15:34.248Z,100229.63
2023-01-09T23:18:00.819Z,100232.41
2023-01-09T23:20:27.417Z,100242.00
2023-01-09T23:22:54.019Z,100244.38
2023-01-09T23:25:20.649Z,100244.34
2023-01-09T23:27:47.292Z,100255.94
2023-01-09T23:30:14.436Z,100255.03
2023-01-09T23:32:41.767Z,100261.06
2023-01-09T23:35:08.688Z,100264.63
2023-01-09T23:37:35.410Z,100280.69
2023-01-09T23:40:01.951Z,100288.50
2023-01-09T23:42:47.473Z,100280.44
2023-01-09T23:45:14.420Z,100292.78
2023-01-09T23:47:41.274Z,100297.19
2023-01-09T23:50:09.158Z,100291.66
2023-01-09T23:52:36.202Z,100304.53
2023-01-09T23:55:02.775Z,100308.91
2023-01-09T23:57:29.361Z,100316.13
2023-01-09T23:59:55.912Z,100312.38
